createdAt,value
2022-10-11T00:01:18.120Z,30.58
2022-10-11T00:03:44.530Z,29.48
2022-10-11T00:06:11.207Z,31.25
2022-10-11T00:08:37.849Z,31.17
2022-10-11T00:11:07.721Z,30.80
2022-10-11T00:13:34.721Z,30.27
2022-10-11T00:16:01.285Z,30.77
2022-10-11T00:18:27.832Z,31.05
2022-10-11T00:21:02.962Z,29.85
2022-10-11T00:23:29.384Z,30.30
2022-10-11T00:25:57.559Z,30.67
2022-10-11T00:28:24.061Z,31.33
2022-10-11T00:30:50.447Z,29.85
2022-10-11T00:33:16.920Z,29.48
2022-10-11T00:35:44.911Z,29.80
2022-10-11T00:38:11.462Z,30.30
2022-10-11T00:40:38.279Z,30.92
2022-10-11T00:43:14.293Z,30.70
2022-10-11T00:45:40.715Z,30.33
2022-10-11T00:48:17.466Z,30.10
2022-10-11T00:50:43.981Z,31.40
2022-10-11T00:53:12.164Z,31.63
2022-10-11T00:56:05.161Z,31.60
2022-10-11T00:58:35.184Z,30.75
2022-10-11T01:01:02.292Z,30.25
2022-10-11T01:03:30.387Z,30.55
2022-10-11T01:05:57.193Z,30.48
2022-10-11T01:08:24.805Z,30.80
2022-10-11T01:10:52.103Z,29.98
2022-10-11T01:13:18.437Z,30.35
2022-10-11T01:15:58.205Z,29.98
2022-10-11T01:18:35.661Z,29.92
2022-10-11T01:21:15.076Z,30.95
2022-10-11T01:24:04.655Z,31.17
2022-10-11T01:27:16.359Z,30.10
2022-10-11T01:30:03.591Z,30.60
2022-10-11T01:33:00.585Z,29.98
2022-10-11T01:36:07.528Z,30.40
2022-10-11T01:38:50.170Z,29.67
2022-10-11T01:41:23.779Z,30.70
2022-10-11T01:43:55.628Z,31.08
2022-10-11T01:46:23.804Z,30.45
2022-10-11T01:48:52.105Z,31.70
2022-10-11T01:51:28.613Z,31.27
2022-10-11T01:54:07.906Z,30.48
2022-10-11T01:57:10.367Z,30.15
2022-10-11T01:59:51.807Z,31.25
2022-10-11T02:02:36.257Z,31.55
2022-10-11T02:05:38.142Z,30.83
2022-10-11T02:08:47.655Z,30.95
2022-10-11T02:11:28.726Z,31.33
2022-10-11T02:14:20.492Z,30.95
2022-10-11T02:16:53.975Z,31.02
2022-10-11T02:19:26.269Z,30.88
2022-10-11T02:21:57.622Z,32.03
2022-10-11T02:24:36.648Z,31.35
2022-10-11T02:27:05.162Z,30.63
2022-10-11T02:29:36.028Z,30.67
2022-10-11T02:32:02.509Z,32.03
2022-10-11T02:34:37.724Z,30.65
2022-10-11T02:37:19.323Z,30.30
2022-10-11T02:40:16.014Z,31.25
2022-10-11T02:42:48.662Z,30.35
2022-10-11T02:45:19.702Z,30.98
2022-10-11T02:47:47.246Z,31.42
2022-10-11T02:50:14.275Z,30.23
2022-10-11T02:52:40.680Z,30.95
2022-10-11T02:55:07.928Z,30.83
2022-10-11T02:57:34.300Z,30.90
2022-10-11T03:00:00.645Z,30.42
2022-10-11T03:02:27.377Z,31.17
2022-10-11T03:04:53.889Z,31.20
2022-10-11T03:07:20.298Z,31.08
2022-10-11T03:09:46.830Z,30.48
2022-10-11T03:12:13.203Z,30.98
2022-10-11T03:14:39.707Z,30.80
2022-10-11T03:17:31.020Z,30.48
2022-10-11T03:19:52.624Z,30.42
2022-10-11T03:22:19.088Z,30.17
2022-10-11T03:24:45.492Z,30.17
2022-10-11T03:27:12.219Z,31.08
2022-10-11T03:29:38.808Z,30.02
2022-10-11T03:32:05.636Z,30.73
2022-10-11T03:34:32.021Z,30.33
2022-10-11T03:36:58.407Z,30.50
2022-10-11T03:39:24.793Z,30.20
2022-10-11T03:41:51.162Z,31.05
2022-10-11T03:44:17.668Z,31.00
2022-10-11T03:46:44.024Z,30.80
2022-10-11T03:49:10.394Z,30.42
2022-10-11T03:51:36.759Z,31.60
2022-10-11T03:54:03.206Z,31.15
2022-10-11T03:56:29.554Z,30.00
2022-10-11T03:58:55.938Z,30.40
2022-10-11T04:01:22.385Z,30.65
2022-10-11T04:03:48.898Z,29.83
2022-10-11T04:06:15.266Z,30.77
2022-10-11T04:08:41.653Z,31.48
2022-10-11T04:11:08.070Z,31.55
2022-10-11T04:13:34.416Z,30.30
2022-10-11T04:16:00.833Z,31.08
2022-10-11T04:18:27.297Z,31.52
2022-10-11T04:20:53.907Z,30.27
2022-10-11T04:23:20.294Z,31.75
2022-10-11T04:25:48.301Z,31.38
2022-10-11T04:28:14.815Z,30.15
2022-10-11T04:30:41.287Z,30.27
2022-10-11T04:33:07.921Z,30.48
2022-10-11T04:35:34.328Z,30.50
2022-10-11T04:38:00.797Z,31.80
2022-10-11T04:40:27.343Z,30.75
2022-10-11T04:42:53.956Z,31.80
2022-10-11T04:45:21.632Z,31.48
2022-10-11T04:47:48.086Z,31.67
2022-10-11T04:50:14.830Z,31.50
2022-10-11T04:52:41.306Z,31.13
2022-10-11T04:55:08.094Z,31.58
2022-10-11T04:57:34.532Z,32.05
2022-10-11T05:00:01.871Z,31.45
2022-10-11T05:02:28.322Z,31.67
2022-10-11T05:04:54.875Z,30.92
2022-10-11T05:07:21.290Z,31.27
2022-10-11T05:09:47.657Z,31.88
2022-10-11T05:12:14.050Z,31.88
2022-10-11T05:14:40.449Z,33.65
2022-10-11T05:17:06.823Z,31.83
2022-10-11T05:19:33.187Z,31.30
2022-10-11T05:21:59.615Z,31.55
2022-10-11T05:24:26.096Z,31.75
2022-10-11T05:26:52.707Z,31.98
2022-10-11T05:29:19.070Z,32.00
2022-10-11T05:31:45.463Z,32.38
2022-10-11T05:34:11.866Z,32.53
2022-10-11T05:36:38.270Z,31.92
2022-10-11T05:39:04.668Z,31.23
2022-10-11T05:41:31.103Z,32.60
2022-10-11T05:43:57.477Z,31.17
2022-10-11T05:46:24.080Z,30.65
2022-10-11T05:48:50.446Z,30.65
2022-10-11T05:51:16.819Z,30.52
2022-10-11T05:53:43.319Z,30.85
2022-10-11T05:56:21.428Z,31.58
2022-10-11T05:58:48.467Z,33.47
2022-10-11T06:01:23.157Z,31.65
2022-10-11T06:03:49.895Z,32.38
2022-10-11T06:06:16.631Z,32.13
2022-10-11T06:08:43.479Z,32.92
2022-10-11T06:11:25.296Z,32.78
2022-10-11T06:13:57.927Z,31.73
2022-10-11T06:16:24.870Z,31.92
2022-10-11T06:18:55.422Z,32.85
2022-10-11T06:21:23.144Z,33.03
2022-10-11T06:23:50.958Z,31.80
2022-10-11T06:26:18.105Z,31.02
2022-10-11T06:28:44.569Z,31.17
2022-10-11T06:31:11.354Z,31.75
2022-10-11T06:33:38.694Z,32.47
2022-10-11T06:36:08.507Z,31.23
2022-10-11T06:38:35.522Z,31.83
2022-10-11T06:41:18.387Z,31.80
2022-10-11T06:43:45.460Z,31.98
2022-10-11T06:46:12.596Z,31.38
2022-10-11T06:48:40.273Z,32.30
2022-10-11T06:51:06.671Z,31.48
2022-10-11T06:53:33.079Z,32.60
2022-10-11T06:56:08.479Z,31.25
2022-10-11T06:58:35.651Z,31.70
2022-10-11T07:01:04.353Z,33.00
2022-10-11T07:03:31.474Z,32.20
2022-10-11T07:06:06.803Z,31.42
2022-10-11T07:08:34.129Z,31.75
2022-10-11T07:11:02.229Z,32.67
2022-10-11T07:13:28.852Z,32.30
2022-10-11T07:15:56.030Z,30.83
2022-10-11T07:18:23.430Z,31.88
2022-10-11T07:20:49.855Z,30.92
2022-10-11T07:23:16.246Z,30.77
2022-10-11T07:25:42.717Z,30.00
2022-10-11T07:28:09.133Z,30.13
2022-10-11T07:30:39.246Z,30.48
2022-10-11T07:33:05.677Z,30.15
2022-10-11T07:35:36.064Z,31.45
2022-10-11T07:40:29.189Z,29.88
2022-10-11T07:42:56.912Z,29.05
2022-10-11T07:45:24.147Z,30.15
2022-10-11T07:47:50.549Z,30.08
2022-10-11T07:50:20.295Z,27.02
2022-10-11T07:52:47.279Z,28.75
2022-10-11T07:55:23.093Z,29.58
2022-10-11T07:57:58.477Z,26.63
2022-10-11T08:00:28.294Z,25.35
2022-10-11T08:03:06.158Z,25.27
2022-10-11T08:05:39.917Z,23.35
2022-10-11T08:08:10.444Z,23.27
2022-10-11T08:10:49.011Z,23.70
2022-10-11T08:13:32.513Z,22.83
2022-10-11T08:16:09.632Z,21.05
2022-10-11T08:18:52.816Z,20.75
2022-10-11T08:21:23.757Z,17.90
2022-10-11T08:23:59.798Z,18.45
2022-10-11T08:26:40.357Z,17.58
2022-10-11T08:29:14.851Z,18.15
2022-10-11T08:31:53.573Z,15.43
2022-10-11T08:34:27.258Z,15.13
2022-10-11T08:36:59.836Z,15.05
2022-10-11T08:39:43.254Z,15.77
2022-10-11T08:42:46.422Z,14.63
2022-10-11T08:45:46.934Z,15.07
2022-10-11T08:48:23.481Z,14.40
2022-10-11T08:50:58.265Z,13.60
2022-10-11T08:53:49.252Z,13.07
2022-10-11T08:56:28.419Z,13.90
2022-10-11T08:59:16.158Z,13.60
2022-10-11T09:02:49.307Z,12.52
2022-10-11T09:05:23.239Z,13.10
2022-10-11T09:08:42.710Z,12.73
2022-10-11T09:11:55.343Z,11.97
2022-10-11T09:14:46.804Z,12.75
2022-10-11T09:17:51.570Z,12.60
2022-10-11T09:21:02.724Z,12.20
2022-10-11T09:24:10.952Z,11.98
2022-10-11T09:27:14.771Z,11.98
2022-10-11T09:30:24.458Z,12.05
2022-10-11T09:33:37.499Z,12.43
2022-10-11T09:36:31.978Z,12.88
2022-10-11T09:39:31.900Z,12.07
2022-10-11T09:42:03.802Z,12.60
2022-10-11T09:44:47.386Z,14.90
2022-10-11T09:47:27.494Z,18.20
2022-10-11T09:50:20.590Z,17.85
2022-10-11T09:53:02.666Z,12.35
2022-10-11T09:55:35.797Z,13.07
2022-10-11T09:58:30.579Z,13.13
2022-10-11T10:01:23.351Z,11.73
2022-10-11T10:04:17.323Z,12.15
2022-10-11T10:06:50.383Z,11.73
2022-10-11T10:09:30.726Z,12.18
2022-10-11T10:15:16.834Z,11.63
2022-10-11T10:17:58.360Z,12.85
2022-10-11T10:20:34.319Z,11.98
2022-10-11T10:23:19.745Z,11.63
2022-10-11T10:25:54.054Z,11.63
2022-10-11T10:28:28.854Z,11.52
2022-10-11T10:31:05.282Z,11.63
2022-10-11T10:33:41.143Z,11.10
2022-10-11T10:36:24.473Z,10.93
2022-10-11T10:39:09.369Z,11.43
2022-10-11T10:41:46.281Z,10.98
2022-10-11T10:44:18.902Z,12.27
2022-10-11T10:47:09.978Z,11.25
2022-10-11T10:50:06.743Z,10.98
2022-10-11T10:53:04.228Z,12.07
2022-10-11T10:56:04.603Z,11.18
2022-10-11T10:59:16.136Z,11.48
2022-10-11T11:02:35.492Z,10.60
2022-10-11T11:05:27.140Z,11.13
2022-10-11T11:08:50.685Z,11.20
2022-10-11T11:11:32.268Z,11.63
2022-10-11T11:14:28.281Z,10.77
2022-10-11T11:17:25.013Z,11.00
2022-10-11T11:20:18.097Z,11.27
2022-10-11T11:23:31.479Z,10.63
2022-10-11T11:26:30.893Z,10.45
2022-10-11T11:29:55.625Z,11.32
2022-10-11T11:33:13.577Z,11.20
2022-10-11T11:36:02.206Z,11.25
2022-10-11T11:38:50.158Z,11.48
2022-10-11T11:41:34.527Z,11.82
2022-10-11T11:44:25.133Z,12.13
2022-10-11T11:47:09.371Z,11.07
2022-10-11T11:49:48.820Z,11.38
2022-10-11T11:52:35.034Z,11.07
2022-10-11T11:55:39.297Z,11.57
2022-10-11T11:58:38.265Z,11.32
2022-10-11T12:01:36.317Z,11.55
2022-10-11T12:04:25.793Z,11.63
2022-10-11T12:07:21.636Z,12.13
2022-10-11T12:10:33.356Z,13.07
2022-10-11T12:13:08.614Z,12.27
2022-10-11T12:15:37.632Z,11.07
2022-10-11T12:18:30.422Z,10.82
2022-10-11T12:21:28.988Z,11.05
2022-10-11T12:24:06.526Z,10.98
2022-10-11T12:26:50.256Z,11.77
2022-10-11T12:29:37.656Z,10.73
2022-10-11T12:32:06.843Z,10.60
2022-10-11T12:34:43.963Z,12.10
2022-10-11T12:37:26.354Z,11.30
2022-10-11T12:40:03.517Z,10.90
2022-10-11T12:42:50.996Z,10.65
2022-10-11T12:45:24.519Z,10.60
2022-10-11T12:48:33.907Z,11.20
2022-10-11T12:51:36.684Z,11.27
2022-10-11T12:54:41.509Z,10.85
2022-10-11T12:57:29.139Z,11.52
2022-10-11T13:00:17.047Z,11.35
2022-10-11T13:02:47.819Z,11.18
2022-10-11T13:05:45.048Z,11.10
2022-10-11T13:08:43.844Z,11.00
2022-10-11T13:11:22.111Z,11.48
2022-10-11T13:13:53.395Z,11.25
2022-10-11T13:16:28.270Z,10.90
2022-10-11T13:19:01.531Z,10.50
2022-10-11T13:21:39.451Z,10.43
2022-10-11T13:24:21.020Z,11.05
2022-10-11T13:26:55.676Z,10.30
2022-10-11T13:30:03.912Z,10.77
2022-10-11T13:32:38.328Z,9.90
2022-10-11T13:35:24.918Z,10.20
2022-10-11T13:38:00.856Z,10.60
2022-10-11T13:40:31.536Z,10.80
2022-10-11T13:43:09.217Z,10.15
2022-10-11T13:45:47.246Z,10.23
2022-10-11T13:48:18.454Z,10.35
2022-10-11T13:50:56.420Z,10.30
2022-10-11T13:53:40.919Z,10.80
2022-10-11T13:56:19.086Z,10.57
2022-10-11T13:58:51.317Z,10.70
2022-10-11T14:01:40.956Z,10.65
2022-10-11T14:04:29.466Z,11.05
2022-10-11T14:07:08.286Z,10.70
2022-10-11T14:09:51.549Z,10.55
2022-10-11T14:12:54.097Z,10.60
2022-10-11T14:15:42.603Z,11.27
2022-10-11T14:18:54.769Z,10.43
2022-10-11T14:21:58.424Z,10.63
2022-10-11T14:24:27.963Z,10.40
2022-10-11T14:26:59.669Z,10.60
2022-10-11T14:29:41.702Z,10.30
2022-10-11T14:32:16.375Z,11.10
2022-10-11T14:34:57.548Z,12.80
2022-10-11T14:37:36.439Z,11.85
2022-10-11T14:40:39.282Z,10.30
2022-10-11T14:43:13.697Z,10.65
2022-10-11T14:45:51.291Z,11.20
2022-10-11T14:48:36.677Z,10.65
2022-10-11T14:51:16.921Z,10.40
2022-10-11T14:53:51.902Z,10.63
2022-10-11T14:56:22.192Z,10.43
2022-10-11T14:58:57.628Z,10.75
2022-10-11T15:01:27.674Z,10.63
2022-10-11T15:03:54.998Z,11.02
2022-10-11T15:06:33.262Z,10.38
2022-10-11T15:09:06.427Z,10.25
2022-10-11T15:11:55.585Z,10.35
2022-10-11T15:14:28.774Z,10.40
2022-10-11T15:16:59.032Z,10.70
2022-10-11T15:22:02.499Z,11.43
2022-10-11T15:24:29.729Z,10.40
2022-10-11T15:27:04.659Z,9.65
2022-10-11T15:29:40.521Z,10.75
2022-10-11T15:32:10.839Z,11.13
2022-10-11T15:34:42.063Z,11.07
2022-10-11T15:37:09.266Z,10.45
2022-10-11T15:39:44.158Z,10.50
2022-10-11T15:42:13.628Z,10.70
2022-10-11T15:44:54.187Z,10.23
2022-10-11T15:47:27.161Z,11.27
2022-10-11T15:50:06.257Z,10.10
2022-10-11T15:52:46.472Z,9.45
2022-10-11T15:57:43.931Z,10.82
2022-10-11T16:02:47.967Z,10.25
2022-10-11T16:05:15.123Z,9.90
2022-10-11T16:07:54.005Z,9.27
2022-10-11T16:10:30.912Z,9.68
2022-10-11T16:13:01.773Z,9.68
2022-10-11T16:18:22.354Z,10.15
2022-10-11T16:23:34.624Z,11.77
2022-10-11T16:26:04.858Z,13.57
2022-10-11T16:28:40.749Z,10.85
2022-10-11T16:31:13.678Z,10.77
2022-10-11T16:33:54.637Z,11.23
2022-10-11T16:36:31.777Z,12.57
2022-10-11T16:39:01.147Z,11.40
2022-10-11T16:41:33.285Z,11.03
2022-10-11T16:44:10.555Z,11.43
2022-10-11T16:46:54.568Z,11.48
2022-10-11T16:49:27.791Z,20.23
2022-10-11T16:52:00.599Z,16.52
2022-10-11T16:54:37.547Z,16.08
2022-10-11T16:57:13.926Z,17.02
2022-10-11T16:59:46.511Z,17.13
2022-10-11T17:02:20.460Z,16.17
2022-10-11T17:04:53.004Z,15.77
2022-10-11T17:07:31.441Z,16.00
2022-10-11T17:10:01.547Z,15.77
2022-10-11T17:12:39.748Z,15.60
2022-10-11T17:15:10.090Z,15.30
2022-10-11T17:17:37.154Z,18.30
2022-10-11T17:20:06.407Z,16.75
2022-10-11T17:22:36.222Z,16.05
2022-10-11T17:25:05.617Z,16.50
2022-10-11T17:27:32.584Z,15.77
2022-10-11T17:29:59.231Z,16.20
2022-10-11T17:32:26.525Z,14.32
2022-10-11T17:34:53.925Z,16.92
2022-10-11T17:37:23.743Z,15.63
2022-10-11T17:39:50.787Z,14.38
2022-10-11T17:42:17.486Z,14.90
2022-10-11T17:44:44.462Z,14.63
2022-10-11T17:47:16.713Z,14.15
2022-10-11T17:49:52.597Z,14.45
2022-10-11T17:52:22.842Z,13.65
2022-10-11T17:57:18.989Z,14.77
2022-10-11T17:59:45.758Z,14.27
2022-10-11T18:02:14.736Z,15.20
2022-10-11T18:04:46.223Z,12.82
2022-10-11T18:07:12.932Z,14.20
2022-10-11T18:09:41.183Z,14.73
2022-10-11T18:12:08.035Z,13.60
2022-10-11T18:14:34.445Z,12.88
2022-10-11T18:17:00.790Z,13.07
2022-10-11T18:19:27.289Z,13.50
2022-10-11T18:21:53.644Z,12.80
2022-10-11T18:24:20.082Z,14.30
2022-10-11T18:26:46.963Z,13.50
2022-10-11T18:29:13.678Z,12.88
2022-10-11T18:31:41.148Z,13.95
2022-10-11T18:34:10.827Z,13.15
2022-10-11T18:36:37.890Z,12.93
2022-10-11T18:39:07.367Z,12.70
2022-10-11T18:41:34.219Z,13.68
2022-10-11T18:44:03.893Z,14.60
2022-10-11T18:46:30.579Z,15.20
2022-10-11T18:48:59.678Z,13.50
2022-10-11T18:51:28.694Z,13.88
2022-10-11T18:53:55.727Z,13.75
2022-10-11T18:56:24.682Z,14.23
2022-10-11T18:58:52.847Z,13.20
2022-10-11T19:01:31.626Z,13.95
2022-10-11T19:03:59.968Z,14.13
2022-10-11T19:06:49.367Z,13.88
2022-10-11T19:09:21.648Z,14.10
2022-10-11T19:11:50.237Z,14.88
2022-10-11T19:14:18.853Z,15.43
2022-10-11T19:16:51.498Z,15.05
2022-10-11T19:19:20.383Z,15.27
2022-10-11T19:21:48.605Z,15.98
2022-10-11T19:24:20.319Z,15.52
2022-10-11T19:26:47.430Z,15.55
2022-10-11T19:29:19.677Z,15.93
2022-10-11T19:31:54.529Z,16.35
2022-10-11T19:34:22.664Z,15.77
2022-10-11T19:36:53.253Z,16.88
2022-10-11T19:39:21.392Z,18.40
2022-10-11T19:41:47.782Z,19.08
2022-10-11T19:44:15.326Z,24.77
2022-10-11T19:46:51.640Z,19.77
2022-10-11T19:49:22.335Z,18.10
2022-10-11T19:51:48.775Z,19.13
2022-10-11T19:54:15.635Z,20.27
2022-10-11T19:56:43.016Z,19.25
2022-10-11T19:59:10.944Z,19.55
2022-10-11T20:01:37.470Z,18.38
2022-10-11T20:04:22.625Z,18.33
2022-10-11T20:06:57.382Z,18.17
2022-10-11T20:09:29.465Z,18.88
2022-10-11T20:11:56.947Z,18.20
2022-10-11T20:14:26.670Z,18.13
2022-10-11T20:16:53.144Z,18.52
2022-10-11T20:19:20.033Z,18.98
2022-10-11T20:21:47.637Z,18.13
2022-10-11T20:24:14.102Z,19.77
2022-10-11T20:26:40.578Z,21.33
2022-10-11T20:29:07.259Z,22.08
2022-10-11T20:31:37.933Z,20.58
2022-10-11T20:34:07.007Z,19.98
2022-10-11T20:36:35.793Z,20.15
2022-10-11T20:39:02.265Z,19.92
2022-10-11T20:41:34.191Z,18.20
2022-10-11T20:44:02.224Z,17.63
2022-10-11T20:46:31.408Z,18.90
2022-10-11T20:49:02.022Z,18.67
2022-10-11T20:51:30.474Z,18.40
2022-10-11T20:53:58.076Z,17.85
2022-10-11T20:56:25.128Z,17.52
2022-10-11T20:58:53.319Z,18.77
2022-10-11T21:01:26.318Z,18.35
2022-10-11T21:03:53.478Z,18.25
2022-10-11T21:06:20.445Z,17.95
2022-10-11T21:08:46.878Z,18.98
2022-10-11T21:11:13.405Z,18.10
2022-10-11T21:13:40.733Z,18.90
2022-10-11T21:16:12.626Z,18.02
2022-10-11T21:18:39.358Z,19.40
2022-10-11T21:21:13.758Z,19.90
2022-10-11T21:23:41.706Z,19.42
2022-10-11T21:26:11.416Z,19.83
2022-10-11T21:28:38.300Z,19.80
2022-10-11T21:31:09.522Z,20.50
2022-10-11T21:33:36.596Z,20.55
2022-10-11T21:36:05.147Z,19.77
2022-10-11T21:38:31.796Z,20.17
2022-10-11T21:40:58.173Z,20.83
2022-10-11T21:43:24.908Z,19.73
2022-10-11T21:45:51.352Z,21.00
2022-10-11T21:48:17.798Z,19.98
2022-10-11T21:50:44.153Z,21.02
2022-10-11T21:53:10.721Z,19.63
2022-10-11T21:55:37.093Z,19.27
2022-10-11T21:58:03.459Z,21.45
2022-10-11T22:00:29.893Z,21.80
2022-10-11T22:02:56.491Z,21.45
2022-10-11T22:05:22.856Z,21.15
2022-10-11T22:07:49.271Z,21.42
2022-10-11T22:10:15.821Z,22.50
2022-10-11T22:12:42.408Z,23.45
2022-10-11T22:15:09.198Z,33.47
2022-10-11T22:17:35.586Z,26.65
2022-10-11T22:20:02.147Z,26.40
2022-10-11T22:22:28.497Z,26.85
2022-10-11T22:24:54.955Z,26.88
2022-10-11T22:27:21.381Z,24.83
2022-10-11T22:29:47.743Z,23.60
2022-10-11T22:32:14.099Z,23.42
2022-10-11T22:34:40.678Z,23.92
2022-10-11T22:37:07.026Z,22.95
2022-10-11T22:39:33.439Z,23.70
2022-10-11T22:42:00.021Z,23.63
2022-10-11T22:44:29.431Z,23.17
2022-10-11T22:46:55.929Z,23.70
2022-10-11T22:49:22.429Z,22.67
2022-10-11T22:51:49.561Z,23.45
2022-10-11T22:54:15.928Z,22.88
2022-10-11T22:56:42.434Z,23.17
2022-10-11T22:59:09.488Z,23.55
2022-10-11T23:01:35.843Z,23.20
2022-10-11T23:04:02.332Z,23.27
2022-10-11T23:06:28.791Z,24.10
